Buffalo, Montana
Current Conditions -  °F | °C
As of 10:54 AM on Thursday 29 Jan 2015 (Local Time) from KLWT Reporting Station
Clear Clear  
Wind Chill: 36°   Ceiling: Unl
Heat Index: 39°   Visibility: 10mi
Dew Point: 28°   Wind: 5mph
Humidity: 65%   Direction: 100°E
Pressure: 30.33"   Gusts: NA
Location:  46.82°N, 109.82°W
Report Text: KLWT 291754Z AUTO 10004KT 10SM CLR 04/M02 A3033 RMK AO2 SLP299 T00391022 10039 21050 58006
Loading
Personal Weather Stations






























Interactive Weather Map New forecast layout! Learn more

10-Day Weather Forecast

Advertisements
Track Severe Weather on mobile